sensor_id;sensor_type;location;lat;lon;timestamp;temperature;humidity
59973;DHT22;55298;-36.624;-64.282;2023-03-01T00:00:44;34.20;28.30
59973;DHT22;55298;-36.624;-64.282;2023-03-01T00:03:13;34.00;28.10
59973;DHT22;55298;-36.624;-64.282;2023-03-01T00:05:48;34.00;28.30
59973;DHT22;55298;-36.624;-64.282;2023-03-01T00:08:16;33.90;28.70
59973;DHT22;55298;-36.624;-64.282;2023-03-01T00:10:43;33.80;28.70
59973;DHT22;55298;-36.624;-64.282;2023-03-01T00:13:11;33.70;28.80
59973;DHT22;55298;-36.624;-64.282;2023-03-01T00:15:40;33.60;28.20
59973;DHT22;55298;-36.624;-64.282;2023-03-01T00:18:13;33.60;28.80
59973;DHT22;55298;-36.624;-64.282;2023-03-01T00:20:53;33.60;29.20
59973;DHT22;55298;-36.624;-64.282;2023-03-01T00:23:22;33.50;28.50
59973;DHT22;55298;-36.624;-64.282;2023-03-01T00:25:51;33.40;28.60
59973;DHT22;55298;-36.624;-64.282;2023-03-01T00:28:20;33.40;28.70
59973;DHT22;55298;-36.624;-64.282;2023-03-01T00:30:48;33.40;28.80
59973;DHT22;55298;-36.624;-64.282;2023-03-01T00:33:16;33.40;28.30
59973;DHT22;55298;-36.624;-64.282;2023-03-01T00:35:44;33.40;28.20
59973;DHT22;55298;-36.624;-64.282;2023-03-01T00:38:12;33.40;28.00
59973;DHT22;55298;-36.624;-64.282;2023-03-01T00:40:40;33.40;28.80
59973;DHT22;55298;-36.624;-64.282;2023-03-01T00:43:07;33.40;29.10
59973;DHT22;55298;-36.624;-64.282;2023-03-01T00:45:36;33.30;30.00
59973;DHT22;55298;-36.624;-64.282;2023-03-01T00:48:04;33.20;30.50
59973;DHT22;55298;-36.624;-64.282;2023-03-01T00:50:32;33.10;30.20
59973;DHT22;55298;-36.624;-64.282;2023-03-01T00:53:00;33.10;30.00
59973;DHT22;55298;-36.624;-64.282;2023-03-01T00:55:28;33.10;29.90
59973;DHT22;55298;-36.624;-64.282;2023-03-01T00:57:56;33.10;29.70
59973;DHT22;55298;-36.624;-64.282;2023-03-01T01:00:25;33.10;30.10
59973;DHT22;55298;-36.624;-64.282;2023-03-01T01:02:54;33.10;29.90
59973;DHT22;55298;-36.624;-64.282;2023-03-01T01:05:21;33.00;29.90
59973;DHT22;55298;-36.624;-64.282;2023-03-01T01:07:49;33.00;29.60
59973;DHT22;55298;-36.624;-64.282;2023-03-01T01:10:17;32.90;29.60
59973;DHT22;55298;-36.624;-64.282;2023-03-01T01:12:47;32.90;30.00
59973;DHT22;55298;-36.624;-64.282;2023-03-01T01:15:15;32.90;30.90
59973;DHT22;55298;-36.624;-64.282;2023-03-01T01:17:44;32.90;30.70
59973;DHT22;55298;-36.624;-64.282;2023-03-01T01:20:12;32.80;31.30
59973;DHT22;55298;-36.624;-64.282;2023-03-01T01:22:40;32.70;31.90
59973;DHT22;55298;-36.624;-64.282;2023-03-01T01:25:08;32.60;32.00
59973;DHT22;55298;-36.624;-64.282;2023-03-01T01:27:36;32.50;32.60
59973;DHT22;55298;-36.624;-64.282;2023-03-01T01:30:04;32.40;33.00
59973;DHT22;55298;-36.624;-64.282;2023-03-01T01:32:32;32.30;32.70
59973;DHT22;55298;-36.624;-64.282;2023-03-01T01:35:01;32.20;32.80
59973;DHT22;55298;-36.624;-64.282;2023-03-01T01:37:29;32.20;32.60
59973;DHT22;55298;-36.624;-64.282;2023-03-01T01:40:01;32.10;33.00
59973;DHT22;55298;-36.624;-64.282;2023-03-01T01:42:31;32.00;33.10
59973;DHT22;55298;-36.624;-64.282;2023-03-01T01:47:45;31.80;33.90
59973;DHT22;55298;-36.624;-64.282;2023-03-01T01:50:17;31.80;34.30
59973;DHT22;55298;-36.624;-64.282;2023-03-01T01:52:47;31.70;34.20
59973;DHT22;55298;-36.624;-64.282;2023-03-01T01:55:19;31.60;34.20
59973;DHT22;55298;-36.624;-64.282;2023-03-01T01:57:56;31.60;34.70
59973;DHT22;55298;-36.624;-64.282;2023-03-01T02:00:28;31.50;34.50
59973;DHT22;55298;-36.624;-64.282;2023-03-01T02:02:59;31.40;34.90
59973;DHT22;55298;-36.624;-64.282;2023-03-01T02:05:38;31.40;34.60
59973;DHT22;55298;-36.624;-64.282;2023-03-01T02:08:07;31.20;35.70
59973;DHT22;55298;-36.624;-64.282;2023-03-01T02:10:36;31.20;35.40
59973;DHT22;55298;-36.624;-64.282;2023-03-01T02:13:05;31.10;36.10
59973;DHT22;55298;-36.624;-64.282;2023-03-01T02:15:35;30.90;35.60
59973;DHT22;55298;-36.624;-64.282;2023-03-01T02:18:07;30.90;36.60
59973;DHT22;55298;-36.624;-64.282;2023-03-01T02:20:49;30.80;36.90
59973;DHT22;55298;-36.624;-64.282;2023-03-01T02:23:20;30.70;37.60
59973;DHT22;55298;-36.624;-64.282;2023-03-01T02:26:01;30.70;37.30
59973;DHT22;55298;-36.624;-64.282;2023-03-01T02:28:42;30.60;37.70
59973;DHT22;55298;-36.624;-64.282;2023-03-01T02:31:14;30.50;38.20
59973;DHT22;55298;-36.624;-64.282;2023-03-01T02:33:52;30.40;39.00
59973;DHT22;55298;-36.624;-64.282;2023-03-01T02:36:25;30.30;38.60
59973;DHT22;55298;-36.624;-64.282;2023-03-01T02:38:57;30.20;38.70
59973;DHT22;55298;-36.624;-64.282;2023-03-01T02:41:27;30.20;39.00
59973;DHT22;55298;-36.624;-64.282;2023-03-01T02:43:56;30.10;39.20
59973;DHT22;55298;-36.624;-64.282;2023-03-01T02:46:25;30.00;39.20
59973;DHT22;55298;-36.624;-64.282;2023-03-01T02:48:56;30.00;39.40
59973;DHT22;55298;-36.624;-64.282;2023-03-01T02:51:42;29.90;38.10
59973;DHT22;55298;-36.624;-64.282;2023-03-01T02:54:28;29.90;38.70
59973;DHT22;55298;-36.624;-64.282;2023-03-01T02:56:57;29.80;39.30
59973;DHT22;55298;-36.624;-64.282;2023-03-01T02:59:30;29.80;39.90
59973;DHT22;55298;-36.624;-64.282;2023-03-01T03:02:01;29.70;39.10
59973;DHT22;55298;-36.624;-64.282;2023-03-01T03:04:30;29.70;39.40
59973;DHT22;55298;-36.624;-64.282;2023-03-01T03:06:58;29.60;39.50
59973;DHT22;55298;-36.624;-64.282;2023-03-01T03:09:26;29.60;39.00
59973;DHT22;55298;-36.624;-64.282;2023-03-01T03:11:55;29.50;39.60
59973;DHT22;55298;-36.624;-64.282;2023-03-01T03:14:22;29.50;38.60
59973;DHT22;55298;-36.624;-64.282;2023-03-01T03:16:50;29.40;39.30
59973;DHT22;55298;-36.624;-64.282;2023-03-01T03:19:19;29.40;39.80
59973;DHT22;55298;-36.624;-64.282;2023-03-01T03:21:47;29.30;39.70
59973;DHT22;55298;-36.624;-64.282;2023-03-01T03:24:17;29.30;39.50
59973;DHT22;55298;-36.624;-64.282;2023-03-01T03:26:45;29.30;40.10
59973;DHT22;55298;-36.624;-64.282;2023-03-01T03:29:13;29.20;39.30
59973;DHT22;55298;-36.624;-64.282;2023-03-01T03:31:40;29.20;38.90
59973;DHT22;55298;-36.624;-64.282;2023-03-01T03:34:08;29.10;39.60
59973;DHT22;55298;-36.624;-64.282;2023-03-01T03:36:44;29.10;39.90
59973;DHT22;55298;-36.624;-64.282;2023-03-01T03:39:12;29.00;40.70
59973;DHT22;55298;-36.624;-64.282;2023-03-01T03:41:39;29.00;39.40
59973;DHT22;55298;-36.624;-64.282;2023-03-01T03:44:07;28.90;40.40
59973;DHT22;55298;-36.624;-64.282;2023-03-01T03:46:35;28.90;40.80
59973;DHT22;55298;-36.624;-64.282;2023-03-01T03:49:02;28.80;41.00
59973;DHT22;55298;-36.624;-64.282;2023-03-01T03:51:30;28.80;40.30
59973;DHT22;55298;-36.624;-64.282;2023-03-01T03:53:58;28.70;42.00
59973;DHT22;55298;-36.624;-64.282;2023-03-01T03:56:25;28.60;42.50
59973;DHT22;55298;-36.624;-64.282;2023-03-01T03:58:53;28.50;42.50
59973;DHT22;55298;-36.624;-64.282;2023-03-01T04:01:21;28.50;42.30
59973;DHT22;55298;-36.624;-64.282;2023-03-01T04:03:49;28.40;42.50
59973;DHT22;55298;-36.624;-64.282;2023-03-01T04:06:21;28.40;43.00
59973;DHT22;55298;-36.624;-64.282;2023-03-01T04:08:49;28.30;42.70
59973;DHT22;55298;-36.624;-64.282;2023-03-01T04:11:17;28.20;43.80
59973;DHT22;55298;-36.624;-64.282;2023-03-01T04:13:56;28.20;44.20
59973;DHT22;55298;-36.624;-64.282;2023-03-01T04:16:24;28.20;44.10
59973;DHT22;55298;-36.624;-64.282;2023-03-01T04:18:52;28.10;44.50
59973;DHT22;55298;-36.624;-64.282;2023-03-01T04:21:20;28.00;44.90
59973;DHT22;55298;-36.624;-64.282;2023-03-01T04:23:48;28.00;44.40
59973;DHT22;55298;-36.624;-64.282;2023-03-01T04:26:20;27.90;45.20
59973;DHT22;55298;-36.624;-64.282;2023-03-01T04:28:48;27.80;45.60
59973;DHT22;55298;-36.624;-64.282;2023-03-01T04:31:18;27.70;46.40
59973;DHT22;55298;-36.624;-64.282;2023-03-01T04:33:51;27.70;46.40
59973;DHT22;55298;-36.624;-64.282;2023-03-01T04:36:21;27.60;46.10
59973;DHT22;55298;-36.624;-64.282;2023-03-01T04:38:49;27.50;46.60
59973;DHT22;55298;-36.624;-64.282;2023-03-01T04:41:18;27.50;46.80
59973;DHT22;55298;-36.624;-64.282;2023-03-01T04:43:48;27.40;47.20
59973;DHT22;55298;-36.624;-64.282;2023-03-01T04:46:18;27.40;46.50
59973;DHT22;55298;-36.624;-64.282;2023-03-01T04:48:46;27.40;47.00
59973;DHT22;55298;-36.624;-64.282;2023-03-01T04:51:15;27.40;45.80
59973;DHT22;55298;-36.624;-64.282;2023-03-01T04:53:43;27.40;46.60
59973;DHT22;55298;-36.624;-64.282;2023-03-01T04:56:12;27.40;45.90
59973;DHT22;55298;-36.624;-64.282;2023-03-01T04:58:41;27.30;46.60
59973;DHT22;55298;-36.624;-64.282;2023-03-01T05:01:10;27.30;47.20
59973;DHT22;55298;-36.624;-64.282;2023-03-01T05:03:44;27.30;46.20
59973;DHT22;55298;-36.624;-64.282;2023-03-01T05:06:13;27.30;46.90
59973;DHT22;55298;-36.624;-64.282;2023-03-01T05:08:42;27.30;47.00
59973;DHT22;55298;-36.624;-64.282;2023-03-01T05:11:13;27.30;46.40
59973;DHT22;55298;-36.624;-64.282;2023-03-01T05:13:42;27.30;46.60
59973;DHT22;55298;-36.624;-64.282;2023-03-01T05:16:10;27.30;47.20
59973;DHT22;55298;-36.624;-64.282;2023-03-01T05:18:39;27.30;46.80
59973;DHT22;55298;-36.624;-64.282;2023-03-01T05:21:12;27.30;47.20
59973;DHT22;55298;-36.624;-64.282;2023-03-01T05:23:42;27.20;47.50
59973;DHT22;55298;-36.624;-64.282;2023-03-01T05:26:10;27.10;47.50
59973;DHT22;55298;-36.624;-64.282;2023-03-01T05:28:39;27.10;47.90
59973;DHT22;55298;-36.624;-64.282;2023-03-01T05:31:07;27.10;47.70
59973;DHT22;55298;-36.624;-64.282;2023-03-01T05:33:38;27.00;48.00
59973;DHT22;55298;-36.624;-64.282;2023-03-01T05:36:07;27.00;48.00
59973;DHT22;55298;-36.624;-64.282;2023-03-01T05:38:36;26.90;48.40
59973;DHT22;55298;-36.624;-64.282;2023-03-01T05:41:12;26.90;48.80
59973;DHT22;55298;-36.624;-64.282;2023-03-01T05:43:40;26.80;48.30
59973;DHT22;55298;-36.624;-64.282;2023-03-01T05:46:10;26.80;49.00
59973;DHT22;55298;-36.624;-64.282;2023-03-01T05:48:39;26.80;48.50
59973;DHT22;55298;-36.624;-64.282;2023-03-01T05:51:08;26.70;48.00
59973;DHT22;55298;-36.624;-64.282;2023-03-01T05:53:35;26.70;49.00
59973;DHT22;55298;-36.624;-64.282;2023-03-01T05:56:05;26.70;48.30
59973;DHT22;55298;-36.624;-64.282;2023-03-01T05:58:33;26.60;49.50
59973;DHT22;55298;-36.624;-64.282;2023-03-01T06:01:00;26.60;49.20
59973;DHT22;55298;-36.624;-64.282;2023-03-01T06:03:28;26.60;49.40
59973;DHT22;55298;-36.624;-64.282;2023-03-01T06:05:57;26.60;49.40
59973;DHT22;55298;-36.624;-64.282;2023-03-01T06:08:25;26.60;50.30
59973;DHT22;55298;-36.624;-64.282;2023-03-01T06:10:54;26.60;49.50
59973;DHT22;55298;-36.624;-64.282;2023-03-01T06:13:23;26.50;50.40
59973;DHT22;55298;-36.624;-64.282;2023-03-01T06:15:51;26.50;49.70
59973;DHT22;55298;-36.624;-64.282;2023-03-01T06:18:18;26.50;49.10
59973;DHT22;55298;-36.624;-64.282;2023-03-01T06:20:54;26.50;49.50
59973;DHT22;55298;-36.624;-64.282;2023-03-01T06:23:23;26.50;49.00
59973;DHT22;55298;-36.624;-64.282;2023-03-01T06:25:52;26.60;49.50
59973;DHT22;55298;-36.624;-64.282;2023-03-01T06:28:21;26.50;50.40
59973;DHT22;55298;-36.624;-64.282;2023-03-01T06:30:50;26.50;48.80
59973;DHT22;55298;-36.624;-64.282;2023-03-01T06:33:19;26.50;50.10
59973;DHT22;55298;-36.624;-64.282;2023-03-01T06:35:48;26.50;50.00
59973;DHT22;55298;-36.624;-64.282;2023-03-01T06:38:16;26.50;51.10
59973;DHT22;55298;-36.624;-64.282;2023-03-01T06:40:51;26.50;49.40
59973;DHT22;55298;-36.624;-64.282;2023-03-01T06:43:18;26.50;49.90
59973;DHT22;55298;-36.624;-64.282;2023-03-01T06:45:45;26.40;51.20
59973;DHT22;55298;-36.624;-64.282;2023-03-01T06:48:13;26.40;51.00
59973;DHT22;55298;-36.624;-64.282;2023-03-01T06:50:41;26.30;51.10
59973;DHT22;55298;-36.624;-64.282;2023-03-01T06:53:08;26.30;50.50
59973;DHT22;55298;-36.624;-64.282;2023-03-01T06:55:36;26.30;51.30
59973;DHT22;55298;-36.624;-64.282;2023-03-01T06:58:04;26.40;51.90
59973;DHT22;55298;-36.624;-64.282;2023-03-01T07:00:32;26.20;50.80
59973;DHT22;55298;-36.624;-64.282;2023-03-01T07:03:01;26.20;49.70
59973;DHT22;55298;-36.624;-64.282;2023-03-01T07:05:29;26.20;51.10
59973;DHT22;55298;-36.624;-64.282;2023-03-01T07:07:57;26.20;51.60
59973;DHT22;55298;-36.624;-64.282;2023-03-01T07:10:25;26.10;51.70
59973;DHT22;55298;-36.624;-64.282;2023-03-01T07:12:56;26.20;51.60
59973;DHT22;55298;-36.624;-64.282;2023-03-01T07:15:25;26.20;51.50
59973;DHT22;55298;-36.624;-64.282;2023-03-01T07:17:53;26.20;51.80
59973;DHT22;55298;-36.624;-64.282;2023-03-01T07:20:21;26.20;51.30
59973;DHT22;55298;-36.624;-64.282;2023-03-01T07:22:53;26.10;51.50
59973;DHT22;55298;-36.624;-64.282;2023-03-01T07:25:21;26.20;52.10
59973;DHT22;55298;-36.624;-64.282;2023-03-01T07:27:51;26.10;52.50
59973;DHT22;55298;-36.624;-64.282;2023-03-01T07:30:20;26.10;51.70
59973;DHT22;55298;-36.624;-64.282;2023-03-01T07:32:48;26.10;51.60
59973;DHT22;55298;-36.624;-64.282;2023-03-01T07:35:16;26.20;51.70
59973;DHT22;55298;-36.624;-64.282;2023-03-01T07:37:44;26.20;51.80
59973;DHT22;55298;-36.624;-64.282;2023-03-01T07:40:12;26.10;51.00
59973;DHT22;55298;-36.624;-64.282;2023-03-01T07:42:40;26.20;50.60
59973;DHT22;55298;-36.624;-64.282;2023-03-01T07:45:08;26.20;50.70
59973;DHT22;55298;-36.624;-64.282;2023-03-01T07:47:36;26.20;51.20
59973;DHT22;55298;-36.624;-64.282;2023-03-01T07:50:04;26.30;50.50
59973;DHT22;55298;-36.624;-64.282;2023-03-01T07:52:32;26.40;50.60
59973;DHT22;55298;-36.624;-64.282;2023-03-01T07:55:00;26.40;51.00
59973;DHT22;55298;-36.624;-64.282;2023-03-01T07:57:27;26.50;50.50
59973;DHT22;55298;-36.624;-64.282;2023-03-01T07:59:55;26.50;50.50
59973;DHT22;55298;-36.624;-64.282;2023-03-01T08:02:23;26.50;50.50
59973;DHT22;55298;-36.624;-64.282;2023-03-01T08:04:50;26.60;50.80
59973;DHT22;55298;-36.624;-64.282;2023-03-01T08:07:18;26.60;50.40
59973;DHT22;55298;-36.624;-64.282;2023-03-01T08:09:47;26.60;50.30
59973;DHT22;55298;-36.624;-64.282;2023-03-01T08:12:15;26.60;50.40
59973;DHT22;55298;-36.624;-64.282;2023-03-01T08:14:44;26.60;50.80
59973;DHT22;55298;-36.624;-64.282;2023-03-01T08:17:14;26.60;50.30
59973;DHT22;55298;-36.624;-64.282;2023-03-01T08:19:43;26.50;50.80
59973;DHT22;55298;-36.624;-64.282;2023-03-01T08:22:11;26.50;50.90
59973;DHT22;55298;-36.624;-64.282;2023-03-01T08:24:39;26.40;50.30
59973;DHT22;55298;-36.624;-64.282;2023-03-01T08:27:07;26.20;50.50
59973;DHT22;55298;-36.624;-64.282;2023-03-01T08:29:35;26.10;51.00
59973;DHT22;55298;-36.624;-64.282;2023-03-01T08:32:03;26.00;51.20
59973;DHT22;55298;-36.624;-64.282;2023-03-01T08:34:31;25.90;52.60
59973;DHT22;55298;-36.624;-64.282;2023-03-01T08:36:59;25.80;51.70
59973;DHT22;55298;-36.624;-64.282;2023-03-01T08:39:26;25.60;52.60
59973;DHT22;55298;-36.624;-64.282;2023-03-01T08:41:54;25.50;53.70
59973;DHT22;55298;-36.624;-64.282;2023-03-01T08:44:22;25.40;53.50
59973;DHT22;55298;-36.624;-64.282;2023-03-01T08:46:51;25.30;53.60
59973;DHT22;55298;-36.624;-64.282;2023-03-01T08:49:21;25.20;52.40
59973;DHT22;55298;-36.624;-64.282;2023-03-01T08:51:49;25.10;52.00
59973;DHT22;55298;-36.624;-64.282;2023-03-01T08:54:19;25.10;52.30
59973;DHT22;55298;-36.624;-64.282;2023-03-01T08:56:48;25.00;51.30
59973;DHT22;55298;-36.624;-64.282;2023-03-01T08:59:17;25.00;52.30
59973;DHT22;55298;-36.624;-64.282;2023-03-01T09:01:46;25.00;52.70
59973;DHT22;55298;-36.624;-64.282;2023-03-01T09:04:15;24.90;52.80
59973;DHT22;55298;-36.624;-64.282;2023-03-01T09:06:43;24.90;52.30
59973;DHT22;55298;-36.624;-64.282;2023-03-01T09:09:16;24.80;53.20
59973;DHT22;55298;-36.624;-64.282;2023-03-01T09:11:46;24.70;54.10
59973;DHT22;55298;-36.624;-64.282;2023-03-01T09:14:16;24.70;53.20
59973;DHT22;55298;-36.624;-64.282;2023-03-01T09:16:44;24.60;52.30
59973;DHT22;55298;-36.624;-64.282;2023-03-01T09:19:13;24.60;51.00
59973;DHT22;55298;-36.624;-64.282;2023-03-01T09:21:41;24.50;47.50
59973;DHT22;55298;-36.624;-64.282;2023-03-01T09:24:21;24.50;45.60
59973;DHT22;55298;-36.624;-64.282;2023-03-01T09:26:49;24.50;44.00
59973;DHT22;55298;-36.624;-64.282;2023-03-01T09:29:17;24.50;44.40
59973;DHT22;55298;-36.624;-64.282;2023-03-01T09:31:45;24.50;45.10
59973;DHT22;55298;-36.624;-64.282;2023-03-01T09:34:13;24.50;45.90
59973;DHT22;55298;-36.624;-64.282;2023-03-01T09:36:44;24.40;46.90
59973;DHT22;55298;-36.624;-64.282;2023-03-01T09:39:12;24.30;46.90
59973;DHT22;55298;-36.624;-64.282;2023-03-01T09:42:00;24.30;46.40
59973;DHT22;55298;-36.624;-64.282;2023-03-01T09:44:45;24.20;45.80
59973;DHT22;55298;-36.624;-64.282;2023-03-01T09:47:26;24.10;44.20
59973;DHT22;55298;-36.624;-64.282;2023-03-01T09:52:50;24.00;42.90
59973;DHT22;55298;-36.624;-64.282;2023-03-01T09:55:37;23.90;41.70
59973;DHT22;55298;-36.624;-64.282;2023-03-01T10:00:51;23.80;38.30
59973;DHT22;55298;-36.624;-64.282;2023-03-01T10:03:32;23.70;37.20
59973;DHT22;55298;-36.624;-64.282;2023-03-01T10:06:22;23.70;35.40
59973;DHT22;55298;-36.624;-64.282;2023-03-01T10:08:58;23.80;34.60
59973;DHT22;55298;-36.624;-64.282;2023-03-01T10:11:33;23.80;33.40
59973;DHT22;55298;-36.624;-64.282;2023-03-01T10:17:08;23.80;34.80
59973;DHT22;55298;-36.624;-64.282;2023-03-01T10:19:44;23.80;33.50
59973;DHT22;55298;-36.624;-64.282;2023-03-01T10:22:31;23.80;33.90
59973;DHT22;55298;-36.624;-64.282;2023-03-01T10:25:02;23.80;33.10
59973;DHT22;55298;-36.624;-64.282;2023-03-01T10:27:38;23.80;33.60
59973;DHT22;55298;-36.624;-64.282;2023-03-01T10:30:21;23.70;33.10
59973;DHT22;55298;-36.624;-64.282;2023-03-01T10:32:52;23.60;34.10
59973;DHT22;55298;-36.624;-64.282;2023-03-01T10:35:26;23.70;32.50
59973;DHT22;55298;-36.624;-64.282;2023-03-01T10:38:04;23.70;33.60
59973;DHT22;55298;-36.624;-64.282;2023-03-01T10:40:34;23.70;32.50
59973;DHT22;55298;-36.624;-64.282;2023-03-01T10:43:05;23.70;32.30
59973;DHT22;55298;-36.624;-64.282;2023-03-01T10:45:36;23.80;31.90
59973;DHT22;55298;-36.624;-64.282;2023-03-01T10:48:15;23.80;32.30
59973;DHT22;55298;-36.624;-64.282;2023-03-01T10:50:45;23.90;32.30
59973;DHT22;55298;-36.624;-64.282;2023-03-01T10:53:27;24.00;32.70
59973;DHT22;55298;-36.624;-64.282;2023-03-01T10:56:02;24.10;29.90
59973;DHT22;55298;-36.624;-64.282;2023-03-01T10:58:31;24.20;29.90
59973;DHT22;55298;-36.624;-64.282;2023-03-01T11:01:03;24.50;29.70
59973;DHT22;55298;-36.624;-64.282;2023-03-01T11:03:33;25.30;28.40
59973;DHT22;55298;-36.624;-64.282;2023-03-01T11:08:53;28.00;26.30
59973;DHT22;55298;-36.624;-64.282;2023-03-01T11:11:31;29.30;25.10
59973;DHT22;55298;-36.624;-64.282;2023-03-01T11:14:07;30.30;23.00
59973;DHT22;55298;-36.624;-64.282;2023-03-01T11:16:42;31.20;24.70
59973;DHT22;55298;-36.624;-64.282;2023-03-01T11:19:20;32.00;22.30
59973;DHT22;55298;-36.624;-64.282;2023-03-01T11:22:11;32.60;22.20
59973;DHT22;55298;-36.624;-64.282;2023-03-01T11:24:43;33.10;22.30
59973;DHT22;55298;-36.624;-64.282;2023-03-01T11:27:28;33.60;21.20
59973;DHT22;55298;-36.624;-64.282;2023-03-01T11:30:05;34.20;21.20
59973;DHT22;55298;-36.624;-64.282;2023-03-01T11:32:43;34.50;21.20
59973;DHT22;55298;-36.624;-64.282;2023-03-01T11:35:24;34.90;19.70
59973;DHT22;55298;-36.624;-64.282;2023-03-01T11:38:08;35.10;19.10
59973;DHT22;55298;-36.624;-64.282;2023-03-01T11:40:49;35.20;18.90
59973;DHT22;55298;-36.624;-64.282;2023-03-01T11:43:29;35.40;20.30
59973;DHT22;55298;-36.624;-64.282;2023-03-01T11:52:21;36.30;18.10
59973;DHT22;55298;-36.624;-64.282;2023-03-01T11:58:07;36.60;18.30
59973;DHT22;55298;-36.624;-64.282;2023-03-01T12:12:06;36.80;17.90
59973;DHT22;55298;-36.624;-64.282;2023-03-01T12:17:43;37.20;17.50
59973;DHT22;55298;-36.624;-64.282;2023-03-01T12:20:31;37.60;17.70
59973;DHT22;55298;-36.624;-64.282;2023-03-01T12:26:20;37.70;16.90
59973;DHT22;55298;-36.624;-64.282;2023-03-01T12:34:55;37.20;16.60
59973;DHT22;55298;-36.624;-64.282;2023-03-01T12:37:51;37.20;16.90
59973;DHT22;55298;-36.624;-64.282;2023-03-01T12:46:20;37.80;16.70
59973;DHT22;55298;-36.624;-64.282;2023-03-01T12:51:39;37.70;16.30
59973;DHT22;55298;-36.624;-64.282;2023-03-01T12:54:20;37.60;16.70
59973;DHT22;55298;-36.624;-64.282;2023-03-01T12:56:52;37.50;16.50
59973;DHT22;55298;-36.624;-64.282;2023-03-01T12:59:35;37.30;17.00
59973;DHT22;55298;-36.624;-64.282;2023-03-01T13:02:16;37.10;16.80
59973;DHT22;55298;-36.624;-64.282;2023-03-01T13:04:59;37.10;17.60
59973;DHT22;55298;-36.624;-64.282;2023-03-01T13:07:38;37.30;17.40
59973;DHT22;55298;-36.624;-64.282;2023-03-01T13:10:32;37.70;17.30
59973;DHT22;55298;-36.624;-64.282;2023-03-01T13:13:12;38.00;16.90
59973;DHT22;55298;-36.624;-64.282;2023-03-01T13:15:42;37.80;16.90
59973;DHT22;55298;-36.624;-64.282;2023-03-01T13:18:30;37.60;17.70
59973;DHT22;55298;-36.624;-64.282;2023-03-01T13:21:02;37.60;17.70
59973;DHT22;55298;-36.624;-64.282;2023-03-01T13:23:34;37.90;17.70
59973;DHT22;55298;-36.624;-64.282;2023-03-01T13:26:08;38.50;17.90
59973;DHT22;55298;-36.624;-64.282;2023-03-01T13:28:47;39.00;17.30
59973;DHT22;55298;-36.624;-64.282;2023-03-01T13:31:55;39.30;16.50
59973;DHT22;55298;-36.624;-64.282;2023-03-01T13:34:43;39.40;15.70
59973;DHT22;55298;-36.624;-64.282;2023-03-01T13:37:18;39.30;15.90
59973;DHT22;55298;-36.624;-64.282;2023-03-01T13:39:50;38.80;16.20
59973;DHT22;55298;-36.624;-64.282;2023-03-01T13:42:35;38.50;16.20
59973;DHT22;55298;-36.624;-64.282;2023-03-01T13:45:42;38.30;16.60
59973;DHT22;55298;-36.624;-64.282;2023-03-01T13:47:57;37.70;16.90
59973;DHT22;55298;-36.624;-64.282;2023-03-01T13:50:29;37.50;17.10
59973;DHT22;55298;-36.624;-64.282;2023-03-01T13:53:03;37.90;17.70
59973;DHT22;55298;-36.624;-64.282;2023-03-01T13:55:42;38.60;17.00
59973;DHT22;55298;-36.624;-64.282;2023-03-01T13:58:29;38.90;16.70
59973;DHT22;55298;-36.624;-64.282;2023-03-01T14:01:07;39.30;16.60
59973;DHT22;55298;-36.624;-64.282;2023-03-01T14:03:41;39.60;16.10
59973;DHT22;55298;-36.624;-64.282;2023-03-01T14:06:16;39.70;15.80
59973;DHT22;55298;-36.624;-64.282;2023-03-01T14:08:48;39.80;16.30
59973;DHT22;55298;-36.624;-64.282;2023-03-01T14:11:34;39.80;15.80
59973;DHT22;55298;-36.624;-64.282;2023-03-01T14:17:17;39.90;16.10
59973;DHT22;55298;-36.624;-64.282;2023-03-01T14:19:57;40.10;16.30
59973;DHT22;55298;-36.624;-64.282;2023-03-01T14:22:28;40.40;16.40
59973;DHT22;55298;-36.624;-64.282;2023-03-01T14:25:00;40.70;16.10
59973;DHT22;55298;-36.624;-64.282;2023-03-01T14:27:35;40.70;16.00
59973;DHT22;55298;-36.624;-64.282;2023-03-01T14:30:18;40.50;15.80
59973;DHT22;55298;-36.624;-64.282;2023-03-01T14:32:57;40.40;16.10
59973;DHT22;55298;-36.624;-64.282;2023-03-01T14:35:29;40.50;16.10
59973;DHT22;55298;-36.624;-64.282;2023-03-01T14:37:58;40.60;16.40
59973;DHT22;55298;-36.624;-64.282;2023-03-01T14:40:31;40.60;16.10
59973;DHT22;55298;-36.624;-64.282;2023-03-01T14:43:01;40.50;16.00
59973;DHT22;55298;-36.624;-64.282;2023-03-01T14:45:30;40.90;16.60
59973;DHT22;55298;-36.624;-64.282;2023-03-01T14:48:02;41.00;15.90
59973;DHT22;55298;-36.624;-64.282;2023-03-01T14:50:34;40.70;16.30
59973;DHT22;55298;-36.624;-64.282;2023-03-01T14:53:05;40.50;16.30
59973;DHT22;55298;-36.624;-64.282;2023-03-01T14:55:40;40.50;16.80
59973;DHT22;55298;-36.624;-64.282;2023-03-01T14:58:18;40.60;16.50
59973;DHT22;55298;-36.624;-64.282;2023-03-01T15:00:57;40.70;16.30
59973;DHT22;55298;-36.624;-64.282;2023-03-01T15:03:35;40.70;16.30
59973;DHT22;55298;-36.624;-64.282;2023-03-01T15:06:07;40.50;16.00
59973;DHT22;55298;-36.624;-64.282;2023-03-01T15:08:36;40.50;16.20
59973;DHT22;55298;-36.624;-64.282;2023-03-01T15:11:22;40.60;15.60
59973;DHT22;55298;-36.624;-64.282;2023-03-01T15:13:53;40.60;15.50
59973;DHT22;55298;-36.624;-64.282;2023-03-01T15:16:26;40.70;16.00
59973;DHT22;55298;-36.624;-64.282;2023-03-01T15:18:59;41.00;16.60
59973;DHT22;55298;-36.624;-64.282;2023-03-01T15:21:31;41.10;15.60
59973;DHT22;55298;-36.624;-64.282;2023-03-01T15:24:22;41.20;15.50
59973;DHT22;55298;-36.624;-64.282;2023-03-01T15:26:53;41.20;16.00
59973;DHT22;55298;-36.624;-64.282;2023-03-01T15:29:29;41.20;15.50
59973;DHT22;55298;-36.624;-64.282;2023-03-01T15:32:03;41.50;15.30
59973;DHT22;55298;-36.624;-64.282;2023-03-01T15:34:34;41.50;15.10
59973;DHT22;55298;-36.624;-64.282;2023-03-01T15:37:03;41.60;14.70
59973;DHT22;55298;-36.624;-64.282;2023-03-01T15:42:39;41.50;14.70
59973;DHT22;55298;-36.624;-64.282;2023-03-01T15:45:25;41.40;14.50
59973;DHT22;55298;-36.624;-64.282;2023-03-01T15:47:56;41.30;14.60
59973;DHT22;55298;-36.624;-64.282;2023-03-01T15:50:28;41.10;14.90
59973;DHT22;55298;-36.624;-64.282;2023-03-01T15:52:58;41.20;15.60
59973;DHT22;55298;-36.624;-64.282;2023-03-01T15:55:30;41.30;14.80
59973;DHT22;55298;-36.624;-64.282;2023-03-01T15:58:03;41.00;15.60
59973;DHT22;55298;-36.624;-64.282;2023-03-01T16:00:33;40.30;14.30
59973;DHT22;55298;-36.624;-64.282;2023-03-01T16:03:01;39.40;14.90
59973;DHT22;55298;-36.624;-64.282;2023-03-01T16:05:32;38.80;14.80
59973;DHT22;55298;-36.624;-64.282;2023-03-01T16:08:01;38.40;15.40
59973;DHT22;55298;-36.624;-64.282;2023-03-01T16:10:31;38.10;15.40
59973;DHT22;55298;-36.624;-64.282;2023-03-01T16:12:59;38.00;16.40
59973;DHT22;55298;-36.624;-64.282;2023-03-01T16:15:30;37.80;16.00
59973;DHT22;55298;-36.624;-64.282;2023-03-01T16:17:59;37.70;16.00